Time;durP1;ratioP1;P1;durP2;ratioP2;P2;SDS_P1;SDS_P2;PMS_P1;PMS_P2;Temp;Humidity;BMP_temperature;BMP_pressure;BME280_temperature;BME280_humidity;BME280_pressure;Samples;Min_cycle;Max_cycle;Signal;HPM_P1;HPM_P2
2022/11/06 00:00:08;;;;;;;;;;;13.20;99.90;;;;;;5063013;28;19912;-73
2022/11/06 00:02:34;;;;;;;;;;;13.10;99.90;;;;;;5080617;28;19908;-73
2022/11/06 00:06:46;;;;;;;;;;;13.10;99.90;;;;;;5076903;28;20333;-73
2022/11/06 00:07:46;;;;;;;;;;;13.10;99.90;;;;;;5087393;28;20349;-73
2022/11/06 00:10:12;;;;;;;;;;;13.00;99.90;;;;;;5077995;28;19917;-73
2022/11/06 00:12:38;;;;;;;;;;;12.90;99.90;;;;;;5095427;28;19915;-73
2022/11/06 00:15:04;;;;;;;;;;;13.00;99.90;;;;;;5089749;28;19924;-73
2022/11/06 00:17:29;;;;;;;;;;;13.00;99.90;;;;;;5068190;28;19918;-72
2022/11/06 00:19:55;;;;;;;;;;;12.90;99.90;;;;;;5063113;28;20028;-72
2022/11/06 00:22:21;;;;;;;;;;;12.90;99.90;;;;;;5075408;28;19917;-72
2022/11/06 00:24:48;;;;;;;;;;;12.90;99.90;;;;;;5064772;28;19912;-73
2022/11/06 00:27:14;;;;;;;;;;;12.90;99.90;;;;;;5068019;28;19912;-72
2022/11/06 00:29:39;;;;;;;;;;;12.80;99.90;;;;;;5067486;28;19994;-72
2022/11/06 00:32:05;;;;;;;;;;;12.80;99.90;;;;;;5056739;28;20402;-72
2022/11/06 00:34:31;;;;;;;;;;;12.90;99.90;;;;;;5069936;28;20251;-72
2022/11/06 00:36:57;;;;;;;;;;;12.90;99.90;;;;;;5075139;28;20172;-72
2022/11/06 00:39:22;;;;;;;;;;;12.80;99.90;;;;;;5095799;28;20278;-72
2022/11/06 00:41:48;;;;;;;;;;;12.80;99.90;;;;;;5077980;28;19974;-72
2022/11/06 00:44:13;;;;;;;;;;;12.80;99.90;;;;;;5087942;28;19912;-73
2022/11/06 00:46:39;;;;;;;;;;;12.80;99.90;;;;;;5077573;28;19919;-72
2022/11/06 00:49:05;;;;;;;;;;;12.70;99.90;;;;;;5090056;28;20234;-71
2022/11/06 00:51:32;;;;;;;;;;;12.80;99.90;;;;;;5080307;28;20326;-72
2022/11/06 00:54:03;;;;;;;;;;;12.70;99.90;;;;;;5082946;28;19912;-72
2022/11/06 00:56:29;;;;;;;;;;;12.70;99.90;;;;;;5078108;28;19908;-72
2022/11/06 00:59:03;;;;;;;;;;;12.70;99.90;;;;;;5063592;28;19978;-72
2022/11/06 01:01:30;;;;;;;;;;;12.70;99.90;;;;;;5073838;28;19920;-73
2022/11/06 01:03:58;;;;;;;;;;;12.70;99.90;;;;;;5073378;28;19912;-73
2022/11/06 01:06:25;;;;;;;;;;;12.70;99.90;;;;;;5080725;28;19978;-72
2022/11/06 01:08:51;;;;;;;;;;;12.80;99.90;;;;;;5063726;28;19920;-73
2022/11/06 01:11:21;;;;;;;;;;;12.80;99.90;;;;;;5079033;28;19926;-72
2022/11/06 01:13:48;;;;;;;;;;;12.70;99.90;;;;;;5055832;28;19948;-72
2022/11/06 01:16:14;;;;;;;;;;;12.70;99.90;;;;;;5067958;28;19925;-73
2022/11/06 01:18:41;;;;;;;;;;;12.70;99.90;;;;;;5071685;28;19920;-72
2022/11/06 01:21:07;;;;;;;;;;;12.70;99.90;;;;;;5081604;28;19916;-72
2022/11/06 01:23:33;;;;;;;;;;;12.70;99.90;;;;;;5075851;28;19953;-72
2022/11/06 01:26:00;;;;;;;;;;;12.70;99.90;;;;;;5082926;28;19912;-73
2022/11/06 01:28:26;;;;;;;;;;;12.70;99.90;;;;;;5094144;28;19923;-73
2022/11/06 01:30:51;;;;;;;;;;;12.70;99.90;;;;;;5094649;28;19918;-72
2022/11/06 01:33:17;;;;;;;;;;;12.80;99.90;;;;;;5075295;28;19915;-72
2022/11/06 01:35:44;;;;;;;;;;;12.70;99.90;;;;;;5074056;28;19912;-72
2022/11/06 01:38:09;;;;;;;;;;;12.70;99.90;;;;;;5055667;28;19999;-72
2022/11/06 01:40:39;;;;;;;;;;;12.70;99.90;;;;;;5055989;28;19962;-72
2022/11/06 01:43:09;;;;;;;;;;;12.70;99.90;;;;;;5054844;28;19943;-71
2022/11/06 01:45:37;;;;;;;;;;;12.70;99.90;;;;;;5055121;28;19924;-72
2022/11/06 01:48:04;;;;;;;;;;;12.80;99.90;;;;;;5054839;28;19912;-72
2022/11/06 01:50:29;;;;;;;;;;;12.80;99.90;;;;;;5049276;28;20074;-72
2022/11/06 01:52:59;;;;;;;;;;;12.80;99.90;;;;;;5080877;28;19943;-72
2022/11/06 01:55:29;;;;;;;;;;;12.90;99.90;;;;;;5075092;28;19912;-72
2022/11/06 01:57:56;;;;;;;;;;;12.80;99.90;;;;;;5073474;28;20263;-72
2022/11/06 02:00:21;;;;;;;;;;;12.70;99.90;;;;;;5069551;28;19935;-73
2022/11/06 02:02:48;;;;;;;;;;;12.70;99.90;;;;;;5069769;28;19912;-72
2022/11/06 02:05:13;;;;;;;;;;;12.70;99.90;;;;;;5089375;28;19913;-73
2022/11/06 02:07:39;;;;;;;;;;;12.60;99.90;;;;;;5063648;28;19916;-72
2022/11/06 02:10:05;;;;;;;;;;;12.60;99.90;;;;;;5067898;28;19916;-73
2022/11/06 02:12:46;;;;;;;;;;;12.50;99.90;;;;;;5063714;28;19912;-72
2022/11/06 02:15:32;;;;;;;;;;;12.40;99.90;;;;;;5073743;28;20333;-73
2022/11/06 02:18:01;;;;;;;;;;;12.40;99.90;;;;;;5064026;28;19923;-73
2022/11/06 02:20:45;;;;;;;;;;;12.30;99.90;;;;;;5079445;28;19912;-73
2022/11/06 02:23:11;;;;;;;;;;;12.40;99.90;;;;;;5075671;28;19955;-72
2022/11/06 02:25:47;;;;;;;;;;;12.40;99.90;;;;;;5073328;28;19913;-72
2022/11/06 02:28:24;;;;;;;;;;;12.30;99.90;;;;;;5055816;28;20015;-73
2022/11/06 02:30:51;;;;;;;;;;;12.30;99.90;;;;;;5074320;28;20305;-71
2022/11/06 02:33:28;;;;;;;;;;;12.30;99.90;;;;;;5072666;28;19908;-72
2022/11/06 02:36:10;;;;;;;;;;;12.20;99.90;;;;;;5073864;28;19984;-72
2022/11/06 02:38:39;;;;;;;;;;;12.20;99.90;;;;;;5074035;28;19923;-72
2022/11/06 02:41:06;;;;;;;;;;;12.20;99.90;;;;;;5060111;28;19933;-73
2022/11/06 02:43:37;;;;;;;;;;;12.20;99.90;;;;;;5072522;28;19909;-72
2022/11/06 02:46:10;;;;;;;;;;;12.20;99.90;;;;;;5073948;28;19915;-72
2022/11/06 02:48:39;;;;;;;;;;;12.30;99.90;;;;;;5073714;28;19909;-72
2022/11/06 02:51:06;;;;;;;;;;;12.30;99.90;;;;;;5054092;28;19951;-72
2022/11/06 02:53:33;;;;;;;;;;;12.30;99.90;;;;;;5059362;28;20404;-72
2022/11/06 02:56:04;;;;;;;;;;;12.40;99.90;;;;;;5063067;28;19972;-72
2022/11/06 02:58:34;;;;;;;;;;;12.40;99.90;;;;;;5053510;28;19921;-72
2022/11/06 03:01:19;;;;;;;;;;;12.50;99.90;;;;;;5080846;28;19920;-72
2022/11/06 03:03:47;;;;;;;;;;;12.60;99.90;;;;;;5055050;28;19920;-72
2022/11/06 03:06:16;;;;;;;;;;;12.70;99.90;;;;;;5069854;28;20379;-72
2022/11/06 03:08:53;;;;;;;;;;;12.70;99.90;;;;;;5076300;28;19912;-72
2022/11/06 03:11:24;;;;;;;;;;;12.70;99.90;;;;;;5072773;28;19912;-73
2022/11/06 03:13:59;;;;;;;;;;;12.70;99.90;;;;;;5079174;28;19912;-72
2022/11/06 03:16:43;;;;;;;;;;;12.70;99.90;;;;;;5059380;28;19920;-71
2022/11/06 03:19:18;;;;;;;;;;;12.60;99.90;;;;;;5075533;28;19924;-71
2022/11/06 03:21:59;;;;;;;;;;;12.70;99.90;;;;;;5070594;28;19912;-71
2022/11/06 03:24:39;;;;;;;;;;;12.70;99.90;;;;;;5045529;28;19923;-72
2022/11/06 03:27:12;;;;;;;;;;;12.60;99.90;;;;;;5073586;28;20441;-71
2022/11/06 03:29:40;;;;;;;;;;;12.70;99.90;;;;;;5082692;28;20275;-72
2022/11/06 03:32:13;;;;;;;;;;;12.70;99.90;;;;;;5054198;28;19976;-71
2022/11/06 03:34:47;;;;;;;;;;;12.60;99.90;;;;;;5084305;28;19930;-71
2022/11/06 03:37:20;;;;;;;;;;;12.60;99.90;;;;;;5065350;28;19938;-71
2022/11/06 03:39:49;;;;;;;;;;;12.60;99.90;;;;;;5082455;28;19931;-72
2022/11/06 03:42:19;;;;;;;;;;;12.50;99.90;;;;;;5074563;28;19954;-72
2022/11/06 03:44:47;;;;;;;;;;;12.50;99.90;;;;;;5063565;28;19984;-72
2022/11/06 03:47:42;;;;;;;;;;;12.40;99.90;;;;;;5073028;28;19912;-72
2022/11/06 03:50:16;;;;;;;;;;;12.40;99.90;;;;;;5069101;28;19971;-72
2022/11/06 03:52:45;;;;;;;;;;;12.40;99.90;;;;;;5078039;28;19919;-72
2022/11/06 03:55:16;;;;;;;;;;;12.30;99.90;;;;;;5078140;28;19932;-72
2022/11/06 03:57:44;;;;;;;;;;;12.20;99.90;;;;;;5063367;28;19944;-72
2022/11/06 04:00:11;;;;;;;;;;;12.10;99.90;;;;;;5078822;28;19917;-72
2022/11/06 04:02:38;;;;;;;;;;;12.00;99.90;;;;;;5074120;28;19916;-72
2022/11/06 04:05:16;;;;;;;;;;;12.00;99.90;;;;;;5078404;28;19924;-72
2022/11/06 04:13:56;;;;;;;;;;;12.00;99.90;;;;;;5076721;28;19912;-72
2022/11/06 04:16:00;;;;;;;;;;;12.00;99.90;;;;;;5077629;28;19926;-72
2022/11/06 04:18:25;;;;;;;;;;;11.90;99.90;;;;;;5084472;28;19916;-72
2022/11/06 04:21:22;;;;;;;;;;;11.90;99.90;;;;;;5080796;28;20337;-73
2022/11/06 04:27:04;;;;;;;;;;;11.90;99.90;;;;;;5088992;28;19914;-73
2022/11/06 04:29:30;;;;;;;;;;;11.90;99.90;;;;;;5033781;28;20487;-73
2022/11/06 04:32:07;;;;;;;;;;;11.90;99.90;;;;;;5074582;28;19923;-72
2022/11/06 04:34:41;;;;;;;;;;;11.90;99.90;;;;;;5055551;28;19944;-72
2022/11/06 04:37:07;;;;;;;;;;;11.80;99.90;;;;;;5056275;28;19909;-73
2022/11/06 04:39:41;;;;;;;;;;;11.70;99.90;;;;;;5038022;28;19913;-72
2022/11/06 04:42:22;;;;;;;;;;;11.70;99.90;;;;;;5070425;28;19908;-72
2022/11/06 04:44:50;;;;;;;;;;;11.70;99.90;;;;;;5075816;28;19936;-72
2022/11/06 04:47:18;;;;;;;;;;;11.60;99.90;;;;;;5075711;28;19965;-72
2022/11/06 04:49:44;;;;;;;;;;;11.80;99.90;;;;;;5060128;28;19945;-72
2022/11/06 04:52:12;;;;;;;;;;;11.80;99.90;;;;;;5055872;28;20011;-73
2022/11/06 04:54:38;;;;;;;;;;;11.80;99.90;;;;;;5038339;28;20031;-73
2022/11/06 04:57:04;;;;;;;;;;;11.90;99.90;;;;;;5073373;28;19928;-72
2022/11/06 04:59:32;;;;;;;;;;;12.00;99.90;;;;;;5081889;28;19926;-73
2022/11/06 05:01:58;;;;;;;;;;;12.00;99.90;;;;;;5057765;28;20009;-73
2022/11/06 05:04:24;;;;;;;;;;;12.00;99.90;;;;;;5070662;28;20146;-72
2022/11/06 05:06:49;;;;;;;;;;;12.00;99.90;;;;;;5070834;28;20418;-73
2022/11/06 05:09:15;;;;;;;;;;;12.00;99.90;;;;;;5088761;28;19919;-73
2022/11/06 05:11:41;;;;;;;;;;;12.10;99.90;;;;;;5055251;28;19975;-73
2022/11/06 05:14:07;;;;;;;;;;;12.10;99.90;;;;;;5083641;28;19912;-72
2022/11/06 05:16:33;;;;;;;;;;;12.20;99.90;;;;;;5062536;28;19967;-72
2022/11/06 05:18:58;;;;;;;;;;;12.30;99.90;;;;;;5081987;28;19916;-74
2022/11/06 05:24:08;;;;;;;;;;;12.40;99.90;;;;;;5057447;28;20428;-72
2022/11/06 05:26:34;;;;;;;;;;;12.50;99.90;;;;;;5075183;28;19912;-72
2022/11/06 05:29:00;;;;;;;;;;;12.40;99.90;;;;;;5073617;28;19924;-72
2022/11/06 05:31:26;;;;;;;;;;;12.40;99.90;;;;;;5077647;28;19912;-71
2022/11/06 05:33:52;;;;;;;;;;;12.40;99.90;;;;;;5072954;28;19909;-72
2022/11/06 05:36:18;;;;;;;;;;;12.40;99.90;;;;;;5076194;28;20149;-73
2022/11/06 05:38:44;;;;;;;;;;;12.40;99.90;;;;;;5078495;28;20050;-71
2022/11/06 05:41:09;;;;;;;;;;;12.40;99.90;;;;;;5074237;28;19931;-72
2022/11/06 05:43:35;;;;;;;;;;;12.30;99.90;;;;;;5072812;28;20429;-72
2022/11/06 05:46:01;;;;;;;;;;;12.30;99.90;;;;;;5071989;28;19908;-72
2022/11/06 05:48:27;;;;;;;;;;;12.30;99.90;;;;;;5074652;28;20003;-72
2022/11/06 05:50:53;;;;;;;;;;;12.30;99.90;;;;;;5077126;28;20425;-72
2022/11/06 05:53:18;;;;;;;;;;;12.20;99.90;;;;;;5074938;28;19912;-72
2022/11/06 05:55:45;;;;;;;;;;;12.20;99.90;;;;;;5081153;28;19908;-71
2022/11/06 05:58:11;;;;;;;;;;;12.20;99.90;;;;;;5064606;28;20460;-71
2022/11/06 06:00:36;;;;;;;;;;;12.30;99.90;;;;;;5065212;28;19916;-72
2022/11/06 06:03:02;;;;;;;;;;;12.20;99.90;;;;;;5075761;28;19909;-72
2022/11/06 06:05:28;;;;;;;;;;;12.20;99.90;;;;;;5068561;28;19916;-72
2022/11/06 06:08:01;;;;;;;;;;;12.30;99.90;;;;;;5081241;28;19915;-73
2022/11/06 06:10:26;;;;;;;;;;;12.30;99.90;;;;;;5051376;28;20378;-72
2022/11/06 06:12:52;;;;;;;;;;;12.30;99.90;;;;;;5055710;28;20023;-73
2022/11/06 06:15:18;;;;;;;;;;;12.40;99.90;;;;;;5078999;28;19920;-72
2022/11/06 06:17:44;;;;;;;;;;;12.40;99.90;;;;;;5082271;28;20012;-72
2022/11/06 06:20:10;;;;;;;;;;;12.40;99.90;;;;;;5078052;28;20386;-72
2022/11/06 06:22:35;;;;;;;;;;;12.40;99.90;;;;;;5070700;28;20018;-72
2022/11/06 06:25:01;;;;;;;;;;;12.50;99.90;;;;;;5078141;28;20003;-73
2022/11/06 06:27:27;;;;;;;;;;;12.50;99.90;;;;;;5074283;28;19912;-73
2022/11/06 06:29:53;;;;;;;;;;;12.50;99.90;;;;;;5074714;28;19919;-73
2022/11/06 06:32:18;;;;;;;;;;;12.50;99.90;;;;;;5055184;28;20297;-72
2022/11/06 06:34:44;;;;;;;;;;;12.60;99.90;;;;;;5067917;28;19935;-72
2022/11/06 06:37:10;;;;;;;;;;;12.60;99.90;;;;;;5057550;28;19916;-73
2022/11/06 06:39:35;;;;;;;;;;;12.60;99.90;;;;;;5061146;28;19916;-72
2022/11/06 06:42:01;;;;;;;;;;;12.60;99.90;;;;;;5066997;28;19917;-73
2022/11/06 06:44:26;;;;;;;;;;;12.70;99.90;;;;;;5069369;28;20302;-72
2022/11/06 06:46:52;;;;;;;;;;;12.70;99.90;;;;;;5065789;28;19939;-73
2022/11/06 06:49:18;;;;;;;;;;;12.70;99.90;;;;;;5074803;28;19924;-73
2022/11/06 06:51:43;;;;;;;;;;;12.70;99.90;;;;;;5067147;28;19912;-72
2022/11/06 06:54:09;;;;;;;;;;;12.80;99.90;;;;;;5078190;28;19921;-72
2022/11/06 06:56:35;;;;;;;;;;;12.80;99.90;;;;;;5055115;28;19935;-73
2022/11/06 06:59:01;;;;;;;;;;;12.90;99.90;;;;;;5070703;28;19916;-73
2022/11/06 07:01:26;;;;;;;;;;;12.80;99.90;;;;;;5066389;28;19916;-73
2022/11/06 07:03:52;;;;;;;;;;;12.80;99.90;;;;;;5069593;28;19991;-73
2022/11/06 07:06:18;;;;;;;;;;;12.80;99.90;;;;;;5057501;28;20007;-73
2022/11/06 07:08:44;;;;;;;;;;;12.80;99.90;;;;;;5071640;28;19919;-73
2022/11/06 07:11:10;;;;;;;;;;;12.90;99.90;;;;;;5072212;28;19920;-72
2022/11/06 07:13:35;;;;;;;;;;;12.90;99.90;;;;;;5076998;28;19918;-73
2022/11/06 07:16:02;;;;;;;;;;;12.90;99.90;;;;;;5076416;28;19964;-73
2022/11/06 07:18:27;;;;;;;;;;;12.90;99.90;;;;;;5052559;28;19917;-72
2022/11/06 07:20:53;;;;;;;;;;;12.90;99.90;;;;;;5070429;28;19912;-71
2022/11/06 07:23:19;;;;;;;;;;;12.90;99.90;;;;;;5056160;28;20206;-72
2022/11/06 07:25:50;;;;;;;;;;;12.90;99.90;;;;;;5070756;28;19912;-72
2022/11/06 07:28:16;;;;;;;;;;;13.00;99.90;;;;;;5053111;28;19912;-72
2022/11/06 07:30:41;;;;;;;;;;;13.00;99.90;;;;;;5055996;28;19909;-72
2022/11/06 07:33:09;;;;;;;;;;;13.10;99.90;;;;;;5074463;28;20345;-72
2022/11/06 07:35:34;;;;;;;;;;;13.10;99.90;;;;;;5051940;28;20000;-72
2022/11/06 07:38:04;;;;;;;;;;;13.20;99.90;;;;;;5072970;28;20405;-72
2022/11/06 07:40:31;;;;;;;;;;;13.20;99.90;;;;;;5072845;28;19990;-72
2022/11/06 07:43:01;;;;;;;;;;;13.10;99.90;;;;;;5054923;28;19909;-72
2022/11/06 07:45:27;;;;;;;;;;;13.20;99.90;;;;;;5071773;28;19923;-72
2022/11/06 07:47:55;;;;;;;;;;;13.20;99.90;;;;;;5071665;28;19908;-72
2022/11/06 07:50:20;;;;;;;;;;;13.20;99.90;;;;;;5055028;28;19909;-72
2022/11/06 07:52:46;;;;;;;;;;;13.30;99.90;;;;;;5072731;28;20377;-72
2022/11/06 07:55:12;;;;;;;;;;;13.40;99.90;;;;;;5066597;28;20487;-72
2022/11/06 07:57:38;;;;;;;;;;;13.50;99.90;;;;;;5035138;28;19916;-72
2022/11/06 08:00:04;;;;;;;;;;;13.50;99.90;;;;;;5052058;28;19913;-72
2022/11/06 08:02:30;;;;;;;;;;;13.60;99.90;;;;;;5057469;28;19991;-72
2022/11/06 08:04:55;;;;;;;;;;;13.60;99.90;;;;;;5054837;28;19963;-71
2022/11/06 08:07:21;;;;;;;;;;;13.70;99.90;;;;;;5071980;28;19909;-71
2022/11/06 08:09:46;;;;;;;;;;;13.70;99.90;;;;;;5054813;28;19908;-71
2022/11/06 08:12:13;;;;;;;;;;;13.70;99.90;;;;;;5072530;28;19909;-71
2022/11/06 08:14:39;;;;;;;;;;;13.70;99.90;;;;;;5057744;28;19916;-71
2022/11/06 08:17:05;;;;;;;;;;;13.80;99.90;;;;;;5070183;28;19913;-72
2022/11/06 08:19:31;;;;;;;;;;;13.80;99.90;;;;;;5056544;28;19975;-71
2022/11/06 08:21:56;;;;;;;;;;;13.90;99.90;;;;;;5054863;28;20286;-73
2022/11/06 08:24:22;;;;;;;;;;;13.90;99.90;;;;;;5072130;28;20349;-72
2022/11/06 08:26:48;;;;;;;;;;;13.90;99.90;;;;;;5074924;28;19913;-73
2022/11/06 08:29:14;;;;;;;;;;;14.00;99.90;;;;;;5075602;28;19908;-73
2022/11/06 08:31:39;;;;;;;;;;;14.10;99.90;;;;;;5075928;28;19955;-72
2022/11/06 08:34:05;;;;;;;;;;;14.20;99.90;;;;;;5057270;28;19909;-72
2022/11/06 08:36:34;;;;;;;;;;;14.30;99.90;;;;;;5062175;28;19919;-72
2022/11/06 08:39:00;;;;;;;;;;;14.30;99.90;;;;;;5074853;28;19927;-72
2022/11/06 08:41:26;;;;;;;;;;;14.40;99.90;;;;;;5070078;28;19913;-72
2022/11/06 08:43:52;;;;;;;;;;;14.40;99.90;;;;;;5056068;28;20382;-73
2022/11/06 08:46:17;;;;;;;;;;;14.50;99.90;;;;;;5056038;28;19913;-72
2022/11/06 08:48:43;;;;;;;;;;;14.60;99.90;;;;;;5056104;28;19908;-72
2022/11/06 08:51:09;;;;;;;;;;;14.60;99.90;;;;;;5056205;28;20386;-72
2022/11/06 08:53:34;;;;;;;;;;;14.60;99.90;;;;;;5039224;28;20433;-73
2022/11/06 08:56:03;;;;;;;;;;;14.70;99.90;;;;;;5075329;28;19909;-72
2022/11/06 08:58:29;;;;;;;;;;;14.70;99.90;;;;;;5075536;28;19916;-72
2022/11/06 09:00:54;;;;;;;;;;;14.70;99.90;;;;;;5055950;28;20420;-74
2022/11/06 09:03:20;;;;;;;;;;;14.80;99.90;;;;;;5056773;28;20031;-73
2022/11/06 09:05:46;;;;;;;;;;;14.90;99.90;;;;;;5037531;28;19908;-72
2022/11/06 09:08:14;;;;;;;;;;;14.90;99.90;;;;;;5055640;28;20050;-73
2022/11/06 09:10:41;;;;;;;;;;;15.00;99.90;;;;;;5037515;28;19920;-73
2022/11/06 09:13:06;;;;;;;;;;;15.20;99.90;;;;;;5073815;28;19916;-72
2022/11/06 09:15:32;;;;;;;;;;;15.20;99.90;;;;;;5057426;28;19979;-72
2022/11/06 09:17:59;;;;;;;;;;;15.30;99.90;;;;;;5056767;28;20012;-72
2022/11/06 09:20:25;;;;;;;;;;;15.30;99.90;;;;;;5075061;28;19909;-72
2022/11/06 09:22:51;;;;;;;;;;;15.30;99.90;;;;;;5075572;28;19940;-72
2022/11/06 09:25:17;;;;;;;;;;;15.40;99.90;;;;;;5045111;28;20131;-72
2022/11/06 09:27:42;;;;;;;;;;;15.40;99.90;;;;;;5055728;28;19909;-72
2022/11/06 09:30:09;;;;;;;;;;;15.50;99.90;;;;;;5056419;28;19909;-72
2022/11/06 09:32:34;;;;;;;;;;;15.50;99.90;;;;;;5056290;28;19909;-71
2022/11/06 09:35:00;;;;;;;;;;;15.50;99.90;;;;;;5055607;28;19923;-72
2022/11/06 09:37:25;;;;;;;;;;;15.50;99.90;;;;;;5069459;28;19908;-72
2022/11/06 09:39:51;;;;;;;;;;;15.60;99.90;;;;;;5058180;28;19917;-70
2022/11/06 09:42:20;;;;;;;;;;;15.60;99.90;;;;;;5075537;28;19916;-71
2022/11/06 09:44:55;;;;;;;;;;;15.60;99.90;;;;;;5055732;28;19919;-71
2022/11/06 09:47:22;;;;;;;;;;;15.70;99.90;;;;;;5069705;28;20007;-72
2022/11/06 09:49:52;;;;;;;;;;;15.70;99.90;;;;;;5074771;28;19912;-72
2022/11/06 09:52:37;;;;;;;;;;;15.70;99.90;;;;;;5052644;28;19919;-72
2022/11/06 09:55:05;;;;;;;;;;;15.70;99.90;;;;;;5058753;28;19913;-72
2022/11/06 09:57:41;;;;;;;;;;;15.70;99.90;;;;;;5036493;28;19956;-71
2022/11/06 10:00:10;;;;;;;;;;;15.70;99.90;;;;;;5045534;28;19963;-71
2022/11/06 10:02:48;;;;;;;;;;;15.70;99.90;;;;;;5074631;28;19916;-71
2022/11/06 10:05:17;;;;;;;;;;;15.70;99.90;;;;;;5064214;28;19913;-71
2022/11/06 10:07:43;;;;;;;;;;;15.70;99.90;;;;;;5073553;28;19920;-71
2022/11/06 10:10:16;;;;;;;;;;;15.70;99.90;;;;;;5059435;28;19912;-71
2022/11/06 10:12:45;;;;;;;;;;;15.70;99.90;;;;;;5070703;28;19968;-71
2022/11/06 10:15:29;;;;;;;;;;;15.80;99.90;;;;;;5069752;28;19998;-72
2022/11/06 10:17:59;;;;;;;;;;;15.80;99.90;;;;;;5063693;28;19912;-71
2022/11/06 10:20:30;;;;;;;;;;;15.80;99.90;;;;;;5066876;28;19908;-72
2022/11/06 10:23:02;;;;;;;;;;;15.80;99.90;;;;;;5074786;28;19919;-71
2022/11/06 10:25:37;;;;;;;;;;;15.80;99.90;;;;;;5079628;28;19916;-71
2022/11/06 10:28:13;;;;;;;;;;;15.90;99.90;;;;;;5078426;28;19912;-72
2022/11/06 10:30:45;;;;;;;;;;;15.80;99.90;;;;;;5083041;28;19920;-72
2022/11/06 10:33:29;;;;;;;;;;;15.80;99.90;;;;;;5074976;28;19916;-71
2022/11/06 10:35:58;;;;;;;;;;;15.90;99.90;;;;;;5070351;28;19913;-73
2022/11/06 10:38:26;;;;;;;;;;;15.90;99.90;;;;;;5076371;28;19936;-72
2022/11/06 10:40:53;;;;;;;;;;;15.90;99.90;;;;;;5075232;28;19931;-72
2022/11/06 10:43:39;;;;;;;;;;;16.00;99.90;;;;;;5057035;28;19995;-72
2022/11/06 10:46:15;;;;;;;;;;;16.00;99.90;;;;;;5074769;28;19908;-73
2022/11/06 10:48:50;;;;;;;;;;;16.00;99.90;;;;;;5055507;28;19944;-71
2022/11/06 10:51:25;;;;;;;;;;;16.10;99.90;;;;;;5076843;28;19951;-71
2022/11/06 10:54:09;;;;;;;;;;;16.10;99.90;;;;;;5077638;28;19908;-71
2022/11/06 10:56:53;;;;;;;;;;;16.00;99.90;;;;;;5071039;28;20290;-72
2022/11/06 10:59:19;;;;;;;;;;;16.00;99.90;;;;;;5064003;28;19917;-72
2022/11/06 11:01:45;;;;;;;;;;;16.10;99.90;;;;;;5072749;28;20402;-71
2022/11/06 11:04:10;;;;;;;;;;;16.10;99.90;;;;;;5075958;28;19912;-71
2022/11/06 11:06:40;;;;;;;;;;;16.10;99.90;;;;;;5080148;28;19966;-72
2022/11/06 11:09:49;;;;;;;;;;;;;;;;;;;;;
2022/11/06 11:12:44;;;;;;;;;;;16.10;99.90;;;;;;5071737;28;19983;-72
2022/11/06 11:15:13;;;;;;;;;;;16.20;99.90;;;;;;5047224;28;19928;-71
2022/11/06 11:17:39;;;;;;;;;;;16.20;99.90;;;;;;5074136;28;19913;-71
2022/11/06 11:20:25;;;;;;;;;;;16.10;99.90;;;;;;5086240;28;20377;-72
2022/11/06 11:23:06;;;;;;;;;;;16.20;99.90;;;;;;5055144;28;19913;-72
2022/11/06 11:25:32;;;;;;;;;;;16.20;99.90;;;;;;5058915;28;19927;-72
2022/11/06 11:27:58;;;;;;;;;;;16.20;99.90;;;;;;5073857;28;20349;-72
2022/11/06 11:30:28;;;;;;;;;;;16.20;99.90;;;;;;5073529;28;20290;-72
2022/11/06 11:32:57;;;;;;;;;;;16.20;99.90;;;;;;5081150;28;19912;-72
2022/11/06 11:35:27;;;;;;;;;;;16.30;99.90;;;;;;5077136;28;19923;-72
2022/11/06 11:38:04;;;;;;;;;;;16.40;99.90;;;;;;5073013;28;20354;-72
2022/11/06 11:40:35;;;;;;;;;;;16.50;99.90;;;;;;5073193;28;19916;-72
2022/11/06 11:43:18;;;;;;;;;;;16.50;99.90;;;;;;5072887;28;19913;-71
2022/11/06 11:46:07;;;;;;;;;;;16.60;99.90;;;;;;5072245;28;19935;-72
2022/11/06 11:48:44;;;;;;;;;;;16.60;99.90;;;;;;5059007;28;19916;-71
2022/11/06 11:51:25;;;;;;;;;;;16.70;99.90;;;;;;5076517;28;19955;-71
2022/11/06 11:53:53;;;;;;;;;;;16.70;99.90;;;;;;5076130;28;19995;-72
2022/11/06 11:56:21;;;;;;;;;;;16.70;99.90;;;;;;5076227;28;20374;-71
2022/11/06 11:58:54;;;;;;;;;;;16.80;99.90;;;;;;5059052;28;19939;-71
2022/11/06 12:01:29;;;;;;;;;;;16.80;99.90;;;;;;5059517;28;19913;-72
2022/11/06 12:03:55;;;;;;;;;;;16.70;99.90;;;;;;5074319;28;19935;-71
2022/11/06 12:06:21;;;;;;;;;;;16.60;99.90;;;;;;5082815;28;19913;-71
2022/11/06 12:08:48;;;;;;;;;;;16.60;99.90;;;;;;5075565;28;19924;-71
2022/11/06 12:11:18;;;;;;;;;;;16.70;99.90;;;;;;5082570;28;19969;-72
2022/11/06 12:13:44;;;;;;;;;;;16.80;99.90;;;;;;5076252;28;19999;-72
2022/11/06 12:16:13;;;;;;;;;;;16.80;99.90;;;;;;5080197;28;19970;-72
2022/11/06 12:18:41;;;;;;;;;;;16.90;99.90;;;;;;5077909;28;20291;-72
2022/11/06 12:21:24;;;;;;;;;;;16.90;99.90;;;;;;5083034;28;19912;-72
2022/11/06 12:23:53;;;;;;;;;;;16.90;99.90;;;;;;5057510;28;19967;-72
2022/11/06 12:26:37;;;;;;;;;;;16.80;99.90;;;;;;5068883;28;20250;-72
2022/11/06 12:29:35;;;;;;;;;;;16.70;99.90;;;;;;5076368;28;20091;-72
2022/11/06 12:32:22;;;;;;;;;;;16.50;99.90;;;;;;5058273;28;20011;-72
2022/11/06 12:35:14;;;;;;;;;;;16.60;99.90;;;;;;5072406;28;19958;-72
2022/11/06 12:37:52;;;;;;;;;;;16.50;99.90;;;;;;5050995;28;19916;-72
2022/11/06 12:40:19;;;;;;;;;;;16.70;99.90;;;;;;5053618;28;19932;-72
2022/11/06 12:43:08;;;;;;;;;;;16.60;99.90;;;;;;5063199;28;19920;-72
2022/11/06 12:45:40;;;;;;;;;;;16.60;99.90;;;;;;5057622;28;19913;-72
2022/11/06 12:48:17;;;;;;;;;;;16.50;99.90;;;;;;5069199;28;19944;-71
2022/11/06 12:50:55;;;;;;;;;;;16.40;99.90;;;;;;5071954;28;19963;-72
2022/11/06 12:53:27;;;;;;;;;;;16.40;99.90;;;;;;5070852;28;20298;-72
2022/11/06 12:55:59;;;;;;;;;;;16.30;99.90;;;;;;5057864;28;19912;-71
2022/11/06 12:58:37;;;;;;;;;;;16.30;99.90;;;;;;5056866;28;20281;-72
2022/11/06 13:01:23;;;;;;;;;;;16.40;99.90;;;;;;5073435;28;19975;-71
2022/11/06 13:04:08;;;;;;;;;;;16.40;99.90;;;;;;5080652;28;19975;-72
2022/11/06 13:06:37;;;;;;;;;;;16.30;99.90;;;;;;5077194;28;19914;-72
2022/11/06 13:09:12;;;;;;;;;;;16.30;99.90;;;;;;5076877;28;19943;-73
2022/11/06 13:11:56;;;;;;;;;;;16.30;99.90;;;;;;5085539;28;19913;-72
2022/11/06 13:14:39;;;;;;;;;;;16.30;99.90;;;;;;5050214;28;19916;-72
2022/11/06 13:17:12;;;;;;;;;;;16.30;99.90;;;;;;5073901;28;19916;-72
2022/11/06 13:19:57;;;;;;;;;;;16.20;99.90;;;;;;5062382;28;20396;-72
2022/11/06 13:22:38;;;;;;;;;;;16.30;99.90;;;;;;5072976;28;19912;-73
2022/11/06 13:25:17;;;;;;;;;;;16.30;99.90;;;;;;5073035;28;19921;-72
2022/11/06 13:27:45;;;;;;;;;;;16.30;99.90;;;;;;5073977;28;19919;-72
2022/11/06 13:30:18;;;;;;;;;;;16.40;99.90;;;;;;5075442;28;20439;-72
2022/11/06 13:32:46;;;;;;;;;;;16.30;99.90;;;;;;5067516;28;19960;-72
2022/11/06 13:35:13;;;;;;;;;;;16.40;99.90;;;;;;5073102;28;20387;-72
2022/11/06 13:37:40;;;;;;;;;;;16.30;99.90;;;;;;5058387;28;19982;-72
2022/11/06 13:40:25;;;;;;;;;;;16.40;99.90;;;;;;5075773;28;20386;-72
2022/11/06 13:42:54;;;;;;;;;;;16.40;99.90;;;;;;5072277;28;20340;-72
2022/11/06 13:45:20;;;;;;;;;;;16.40;99.90;;;;;;5068252;28;19963;-73
2022/11/06 13:47:52;;;;;;;;;;;16.50;99.90;;;;;;5071096;28;19922;-72
2022/11/06 13:50:24;;;;;;;;;;;16.40;99.90;;;;;;5074678;28;19913;-72
2022/11/06 13:52:56;;;;;;;;;;;16.40;99.90;;;;;;5066377;28;19912;-72
2022/11/06 13:55:27;;;;;;;;;;;16.40;99.90;;;;;;5068133;28;19916;-72
2022/11/06 13:58:11;;;;;;;;;;;16.50;99.90;;;;;;5058106;28;19912;-72
2022/11/06 14:00:42;;;;;;;;;;;16.50;99.90;;;;;;5069083;28;19916;-72
2022/11/06 14:03:23;;;;;;;;;;;16.50;99.90;;;;;;5074693;28;19916;-72
2022/11/06 14:06:15;;;;;;;;;;;16.50;99.90;;;;;;5069515;28;20019;-72
2022/11/06 14:08:49;;;;;;;;;;;16.50;99.90;;;;;;5053077;28;19913;-72
2022/11/06 14:11:16;;;;;;;;;;;16.40;99.90;;;;;;5060849;28;19957;-72
2022/11/06 14:13:55;;;;;;;;;;;16.40;99.90;;;;;;5067674;28;20402;-73
2022/11/06 14:16:21;;;;;;;;;;;16.40;99.90;;;;;;5071888;28;20322;-72
2022/11/06 14:19:01;;;;;;;;;;;16.30;99.90;;;;;;5075730;28;19917;-72
2022/11/06 14:21:36;;;;;;;;;;;16.30;99.90;;;;;;5068082;28;19923;-72
2022/11/06 14:24:06;;;;;;;;;;;16.30;99.90;;;;;;5080972;28;20433;-72
2022/11/06 14:26:58;;;;;;;;;;;16.30;99.90;;;;;;5071475;28;19940;-72
2022/11/06 14:29:49;;;;;;;;;;;16.40;99.90;;;;;;5033922;28;19919;-73
2022/11/06 14:32:18;;;;;;;;;;;16.40;99.90;;;;;;5061930;28;19912;-72
2022/11/06 14:34:43;;;;;;;;;;;16.40;99.90;;;;;;5069110;28;19938;-73
2022/11/06 14:37:29;;;;;;;;;;;16.50;99.90;;;;;;5069780;28;19917;-73
2022/11/06 14:39:55;;;;;;;;;;;16.50;99.90;;;;;;5071910;28;20381;-72
2022/11/06 14:42:39;;;;;;;;;;;16.60;99.90;;;;;;5087216;28;19938;-72
2022/11/06 14:45:08;;;;;;;;;;;16.60;99.90;;;;;;5073775;28;19923;-72
2022/11/06 14:47:38;;;;;;;;;;;16.70;99.90;;;;;;5071337;28;20342;-71